首页
METAR-TAF:

METAR-TAF

机场 :

梅迪辛哈特, 艾伯塔, 加拿大

纬度: 50-01N, 经度: 110-43W, 海拔: 717米

当前天气观测

该预报发布于32分钟前的23:22 UTC
风速15节,风向北转西北,有时为20节阵风
温度 3°C
湿度 48%
气压 1013 hPa
能見度: 24.1公里
少量云层高于3300英尺
阴天层高于4400英尺
小阵雪

METAR: CYXH 072322Z 34015G20KT 15SM -SHSN FEW033 OVC044 03/M07 A2991 RMK SC2SC6 CVCTV CLD EMBD SLP155

时间: 17:54 (23:54 UTC)

预报

该预报发布于6小时和14分钟前的17:40 UTC
预报有效从07日的 18点(UTC)到 08日的 06点(UTC)
风速20节,风向
能見度: 10公里
多云层高于8000英尺
短暂存在
从 07日的 18点(UTC)到 07日的 20点(UTC)
散云层高于8000英尺
从 07日的 2000点(UTC)
风速12节,风向西北
能見度: 10公里
散云层高于2000英尺
多云层高于6000英尺
阴天层高于12000英尺
短暂存在
从 07日的 20点(UTC)到 07日的 23点(UTC)
能見度: 10公里
多云层高于2000英尺
阴天层高于6000英尺
小阵雨
从 07日的 2300点(UTC)
风速12节,风向西北
能見度: 10公里
多云层高于3000英尺
阴天层高于6000英尺
短暂存在
从 07日的 23点(UTC)到 08日的 06点(UTC)
能見度: 8.0公里
阴天层高于2000英尺
小雪, 雨, 轻雾
成为
从 08日的 01点(UTC)到 08日的 03点(UTC)
风速10节,风向西

TAF: CYXH 071740Z 0718/0806 35020KT P6SM BKN080 TEMPO 0718/0720 SCT080 FM072000 32012KT P6SM SCT020 BKN060 OVC120 TEMPO 0720/0723 P6SM -SHRA BKN020 OVC060 FM072300 32012KT P6SM BKN030 OVC060 TEMPO 0723/0806 5SM -SNRA BR OVC020 BECMG 0801/0803 28010KT RMK NXT FCST BY 080000Z

超过4000个机场的气象观测和天气预报(METAR&TAF报告)。

可查询的气象台以黄色和红色小点在地图上表示。

将鼠标移到小点上方,可查看气象台名称。

然后点击查看天气观测和预报。

如需切换地图:点击带黑十字的绿色按钮放大地图;点击带横线的绿色按钮缩小地图;或者点击绿色箭头查看邻近地区的地图。


METAR-TAF: